Smederevo, Serbia
Current Conditions -  °F | °C
As of 2:00 AM on Saturday 29 Nov 2014 (Local Time) from LYBE Reporting Station
Clear Clear  
Wind Chill: 32°   Ceiling: Unl
Heat Index: 36°   Visibility: 5mi
Dew Point: 34°   Wind: 5mph
Humidity: 93%   Direction: 30°NNE
Pressure: 30.06"   Gusts: NA
Location:  44.67°N, 20.93°E
Report Text: LYBE 290000Z 03004KT 8000 NSC 02/01 Q1018 NOSIG
Loading
Personal Weather Stations






























Interactive Weather Map New forecast layout! Learn more

10-Day Weather Forecast

Advertisements
Track Severe Weather on mobile